Napa — WDE8110 — position and weather

sailwx.info

Track history (hours):
 
Tides and Currents Weather Stations Pressure Air Temp Water Temp Dewpoint Dewpoint Depression Visibility Wind Speed Wind Dir Waves Ship Positions

Napa

Owner: Golden Gate Bridge Hwy. and Transportation District, San Francisco, CA. More information available from US FCC via Universal Licensing System and Coast Guard Vessel Documentation Center.

Last reported at 2017-Nov-18 03:47 UTC. Time now 2017-Nov-18 06:19 UTC.
Position N 37°57' W 122°30'.

Length 38 m; draft 0.15 m.

Type: Passenger vessel. MMSI: 36677150.

Date/timePositionNaut miles runAvg speedWind from/ knotsBaromVisibWave heightAir tempDewpointWater temp
2017-Nov-18 03:47N 37°57' W 122°30'726.0
2017-Nov-18 03:31N 37°51' W 122°24'1 2.1
2017-Nov-18 03:00N 37°52' W 122°25'612.5
2017-Nov-18 02:30N 37°57' W 122°30'1021.0
2017-Nov-18 02:00N 37°48' W 122°24'510.4
2017-Nov-18 01:31N 37°53' W 122°26'611.0
2017-Nov-18 01:00N 37°57' W 122°30'1020.9
2017-Nov-18 00:31N 37°48' W 122°24'4 8.6
2017-Nov-18 00:01N 37°52' W 122°25'612.8
2017-Nov-17 23:30N 37°57' W 122°30'1021.0
2017-Nov-17 23:00N 37°48' W 122°24'714.9
2017-Nov-17 22:30N 37°55' W 122°27'3 6.7
2017-Nov-17 22:00N 37°57' W 122°31'0 0.0
2017-Nov-17 21:30N 37°57' W 122°31'0 0.0
2017-Nov-17 21:00N 37°57' W 122°31'0 0.0
2017-Nov-17 20:30N 37°57' W 122°31'0 0.0
2017-Nov-17 20:00N 37°57' W 122°31'0 0.0
2017-Nov-17 19:30N 37°57' W 122°31'1020.7
2017-Nov-17 19:01N 37°48' W 122°23'4 7.1
2017-Nov-17 18:31N 37°51' W 122°25'713.3
2017-Nov-17 17:59N 37°57' W 122°30'2 4.7
2017-Nov-17 17:31N 37°56' W 122°28'917.2
2017-Nov-17 17:01N 37°48' W 122°24'918.0
2017-Nov-17 16:31N 37°56' W 122°29'1 1.9
2017-Nov-17 16:00N 37°56' W 122°30'1019.2
2017-Nov-17 15:30N 37°48' W 122°24'1021.1
2017-Nov-17 15:00N 37°57' W 122°30'714.6
2017-Nov-17 14:31N 37°51' W 122°24'3 6.8
2017-Nov-17 14:00N 37°54' W 122°27'4 7.7
2017-Nov-17 13:30N 37°57' W 122°30'0 0.0
2017-Nov-17 03:50N 37°57' W 122°30'823.3
2017-Nov-17 03:31N 37°51' W 122°24'2 3.3
2017-Nov-17 03:01N 37°52' W 122°25'612.0
2017-Nov-17 02:30N 37°57' W 122°30'1021.3
2017-Nov-17 02:01N 37°48' W 122°24'611.3
2017-Nov-17 01:30N 37°53' W 122°26'5 9.8
2017-Nov-17 01:00N 37°57' W 122°30'1021.5
2017-Nov-17 00:30N 37°48' W 122°24'4 7.8
2017-Nov-17 00:01N 37°52' W 122°25'713.3
2017-Nov-16 23:30N 37°57' W 122°30'1021.4
2017-Nov-16 23:00N 37°48' W 122°24'713.6
2017-Nov-16 22:31N 37°54' W 122°27'4 7.7
2017-Nov-16 22:00N 37°57' W 122°31'0 0.0
2017-Nov-16 21:30N 37°57' W 122°31'0 0.0
2017-Nov-16 21:00N 37°57' W 122°31'0 0.0
2017-Nov-16 20:30N 37°57' W 122°31'0 0.0
2017-Nov-16 20:00N 37°57' W 122°31'0 0.0
2017-Nov-16 19:31N 37°57' W 122°31'1019.5
2017-Nov-16 19:01N 37°49' W 122°23'3 6.0
2017-Nov-16 18:31N 37°52' W 122°25'713.1
2017-Nov-16 17:59N 37°57' W 122°30'3 6.0
2017-Nov-16 17:30N 37°55' W 122°27'816.3
2017-Nov-16 17:00N 37°48' W 122°24'1019.1
2017-Nov-16 16:30N 37°56' W 122°29'1 1.3
2017-Nov-16 16:01N 37°56' W 122°29'918.1
2017-Nov-16 15:31N 37°48' W 122°24'1020.6
2017-Nov-16 15:00N 37°57' W 122°30'714.3
2017-Nov-16 14:31N 37°52' W 122°24'2 4.9
2017-Nov-16 14:01N 37°53' W 122°26'5 8.8
2017-Nov-16 13:29N 37°57' W 122°30'0 0.0
2017-Nov-16 03:47N 37°57' W 122°30'727.2
2017-Nov-16 03:31N 37°51' W 122°24'1 2.5
2017-Nov-16 03:01N 37°52' W 122°25'612.1
2017-Nov-16 02:29N 37°57' W 122°30'1022.0
2017-Nov-16 02:00N 37°48' W 122°24'5 9.5
2017-Nov-16 01:30N 37°52' W 122°25'612.0
2017-Nov-16 01:00N 37°57' W 122°30'1020.9
2017-Nov-16 00:31N 37°48' W 122°24'4 7.9
2017-Nov-16 00:00N 37°52' W 122°25'713.2
2017-Nov-15 23:30N 37°57' W 122°30'1021.5
2017-Nov-15 23:00N 37°48' W 122°24'918.3
2017-Nov-15 22:31N 37°56' W 122°29'2 3.3
2017-Nov-15 22:01N 37°57' W 122°31'0 0.0
2017-Nov-15 21:31N 37°57' W 122°31'0 0.0
2017-Nov-15 21:00N 37°57' W 122°31'0 0.0
2017-Nov-15 20:30N 37°57' W 122°31'0 0.0
2017-Nov-15 20:00N 37°57' W 122°31'0 0.0
2017-Nov-15 19:30N 37°57' W 122°31'919.1
2017-Nov-15 19:01N 37°49' W 122°24'2 4.1
2017-Nov-15 18:31N 37°51' W 122°25'714.7
2017-Nov-15 18:00N 37°57' W 122°30'4 7.6
2017-Nov-15 17:31N 37°54' W 122°27'714.1
2017-Nov-15 17:00N 37°48' W 122°24'919.0
2017-Nov-15 16:30N 37°56' W 122°29'0 0.2
2017-Nov-15 16:01N 37°56' W 122°29'918.8
2017-Nov-15 15:31N 37°48' W 122°23'1018.6
2017-Nov-15 14:57N 37°57' W 122°30'817.3
2017-Nov-15 14:31N 37°51' W 122°24'3 5.5
2017-Nov-15 14:00N 37°53' W 122°26'5 0.5
2017-Nov-15 03:48N 37°57' W 122°30'724.9
2017-Nov-15 03:30N 37°51' W 122°24'1 2.2
2017-Nov-15 03:00N 37°52' W 122°25'612.1
2017-Nov-15 02:30N 37°57' W 122°30'1020.9
2017-Nov-15 02:01N 37°48' W 122°24'5 9.4
2017-Nov-15 01:31N 37°52' W 122°25'611.6
2017-Nov-15 01:00N 37°57' W 122°30'1021.1
2017-Nov-15 00:30N 37°48' W 122°24'2 3.9
2017-Nov-15 00:00N 37°50' W 122°24'917.3
2017-Nov-14 23:30N 37°57' W 122°30'1020.9
2017-Nov-14 23:00N 37°48' W 122°24'816.5
2017-Nov-14 22:30N 37°55' W 122°28'3 5.1
2017-Nov-14 22:00N 37°57' W 122°31'0 0.0
2017-Nov-14 21:30N 37°57' W 122°31'0 0.0
2017-Nov-14 21:00N 37°57' W 122°31'0 0.0
2017-Nov-14 20:30N 37°57' W 122°31'0 0.0
2017-Nov-14 20:00N 37°57' W 122°31'0 0.0
2017-Nov-14 19:30N 37°57' W 122°31'1020.9
2017-Nov-14 19:01N 37°48' W 122°23'4 8.3
2017-Nov-14 18:30N 37°52' W 122°25'6 9.5
2017-Nov-14 17:50N 37°57' W 122°30'3 8.5
2017-Nov-14 17:30N 37°55' W 122°27'816.6
2017-Nov-14 17:01N 37°48' W 122°24'1019.0
2017-Nov-14 16:30N 37°56' W 122°29'1 1.3
2017-Nov-14 16:00N 37°56' W 122°29'918.0
2017-Nov-14 15:30N 37°48' W 122°24'1020.6
2017-Nov-14 15:00N 37°57' W 122°30'816.1
2017-Nov-14 14:31N 37°51' W 122°24'4 8.0
2017-Nov-14 14:00N 37°54' W 122°27'4 0.4
2017-Nov-14 03:46N 37°57' W 122°30'727.7
2017-Nov-14 03:31N 37°52' W 122°24'1 2.2
2017-Nov-14 03:01N 37°52' W 122°25'611.4
2017-Nov-14 02:29N 37°57' W 122°30'1021.6
2017-Nov-14 02:00N 37°48' W 122°24'611.3
2017-Nov-14 01:30N 37°53' W 122°26'510.2
2017-Nov-14 01:00N 37°57' W 122°30'1020.9
2017-Nov-14 00:30N 37°48' W 122°24'5 9.7
2017-Nov-14 00:00N 37°52' W 122°25'610.5
2017-Nov-13 23:28N 37°57' W 122°30'1022.8
2017-Nov-13 23:01N 37°48' W 122°24'713.9
2017-Nov-13 22:30N 37°54' W 122°27'4 5.1
2017-Nov-13 21:47N 37°57' W 122°30'0 0.0
2017-Nov-12 04:08N 37°57' W 122°31'0 3.7
2017-Nov-12 04:00N 37°56' W 122°30'1020.3
2017-Nov-12 03:31N 37°48' W 122°24'1 1.8
2017-Nov-12 03:01N 37°49' W 122°24'5 9.6
2017-Nov-12 02:30N 37°51' W 122°29'510.8
2017-Nov-12 02:00N 37°48' W 122°24'0 0.0
2017-Nov-12 01:31N 37°48' W 122°24'1020.2
2017-Nov-12 01:00N 37°57' W 122°30'0 0.0
2017-Nov-11 06:02N 37°57' W 122°31'0 1.4
2017-Nov-11 06:00N 37°57' W 122°30'1021.3
2017-Nov-11 05:31N 37°48' W 122°24'917.9
2017-Nov-11 05:00N 37°56' W 122°29'1 2.2
2017-Nov-11 04:30N 37°56' W 122°30'1020.0
2017-Nov-11 04:01N 37°48' W 122°24'1020.4
2017-Nov-11 03:30N 37°57' W 122°30'0 0.4
2017-Nov-11 02:58N 37°57' W 122°30'1023.0
2017-Nov-11 02:31N 37°48' W 122°24'2 5.0
2017-Nov-11 02:01N 37°50' W 122°24'813.0
2017-Nov-11 01:25N 37°56' W 122°30'1025.1
2017-Nov-11 01:01N 37°48' W 122°24'3 5.1
2017-Nov-11 00:30N 37°50' W 122°24'812.8
2017-Nov-10 23:55N 37°56' W 122°30'1024.6
2017-Nov-10 23:30N 37°48' W 122°24'917.9
2017-Nov-10 23:00N 37°56' W 122°29'1 3.0
2017-Nov-10 22:30N 37°57' W 122°30'0 0.0
2017-Nov-10 22:00N 37°57' W 122°30'1020.4
2017-Nov-10 21:31N 37°48' W 122°23'5 9.1
2017-Nov-10 21:00N 37°53' W 122°25'611.3
2017-Nov-10 20:30N 37°57' W 122°30'1020.8
2017-Nov-10 20:01N 37°48' W 122°23'510.9
2017-Nov-10 19:30N 37°53' W 122°26'5 9.4
2017-Nov-10 18:59N 37°57' W 122°30'3 6.5
2017-Nov-10 18:30N 37°55' W 122°27'815.7
2017-Nov-10 18:01N 37°48' W 122°24'713.1
2017-Nov-10 17:30N 37°54' W 122°27'4 7.7
2017-Nov-10 16:59N 37°57' W 122°30'1022.2
2017-Nov-10 16:30N 37°48' W 122°24'1018.8
2017-Nov-10 16:00N 37°56' W 122°29'0 0.4
2017-Nov-10 15:30N 37°56' W 122°29'918.1
2017-Nov-10 15:01N 37°48' W 122°23'1019.9
2017-Nov-10 14:30N 37°57' W 122°30'0 0.0
2017-Nov-10 04:12N 37°57' W 122°30'0 0.0
2017-Nov-10 03:58N 37°57' W 122°30'816.5
2017-Nov-10 03:31N 37°51' W 122°24'0 1.0
2017-Nov-10 03:01N 37°51' W 122°25'713.3
2017-Nov-10 02:28N 37°57' W 122°30'1022.3
2017-Nov-10 02:00N 37°48' W 122°24'5 9.3
2017-Nov-10 01:31N 37°52' W 122°25'612.1
2017-Nov-10 01:00N 37°57' W 122°30'1021.0
2017-Nov-10 00:30N 37°48' W 122°24'5 9.2
2017-Nov-10 00:01N 37°52' W 122°25'611.5
2017-Nov-09 23:28N 37°57' W 122°30'1022.4
2017-Nov-09 23:00N 37°48' W 122°24'714.6
2017-Nov-09 22:30N 37°55' W 122°27'3 6.9
2017-Nov-09 22:00N 37°57' W 122°30'0 0.0
2017-Nov-09 21:30N 37°57' W 122°30'0 0.0
2017-Nov-09 20:59N 37°57' W 122°30'0 0.0
2017-Nov-09 20:30N 37°57' W 122°30'0 0.0
2017-Nov-09 20:00N 37°57' W 122°30'0 0.0
2017-Nov-09 19:30N 37°57' W 122°30'1019.7
2017-Nov-09 19:00N 37°49' W 122°23'3 6.1
2017-Nov-09 18:31N 37°52' W 122°25'713.6
2017-Nov-09 18:00N 37°57' W 122°30'2 5.0
2017-Nov-09 17:30N 37°55' W 122°28'816.8
2017-Nov-09 17:00N 37°48' W 122°24'1018.0
2017-Nov-09 16:26N 37°57' W 122°30'1 1.8
2017-Nov-09 16:00N 37°56' W 122°29'1019.4
2017-Nov-09 15:30N 37°48' W 122°24'1020.9
2017-Nov-09 15:00N 37°57' W 122°30'815.9
2017-Nov-09 14:31N 37°51' W 122°24'4 8.3
2017-Nov-09 14:01N 37°54' W 122°27'4 7.7
2017-Nov-09 13:30N 37°57' W 122°30'0 0.0
2017-Nov-09 03:51N 37°57' W 122°30'721.6
2017-Nov-09 03:30N 37°51' W 122°24'2 4.9
2017-Nov-09 03:01N 37°49' W 122°24'918.5
2017-Nov-09 02:30N 37°57' W 122°30'1021.0
2017-Nov-09 02:01N 37°48' W 122°24'4 8.9
2017-Nov-09 01:30N 37°52' W 122°25'612.0
2017-Nov-09 00:59N 37°57' W 122°30'1021.9
2017-Nov-09 00:30N 37°48' W 122°24'510.3
2017-Nov-09 00:01N 37°53' W 122°25'611.0
2017-Nov-08 23:29N 37°57' W 122°30'1021.7
2017-Nov-08 23:00N 37°48' W 122°24'612.9
2017-Nov-08 22:31N 37°54' W 122°27'4 8.6
2017-Nov-08 22:00N 37°57' W 122°31'0 0.0
2017-Nov-08 21:30N 37°57' W 122°31'0 0.0
2017-Nov-08 21:00N 37°57' W 122°31'0 0.0
2017-Nov-08 20:30N 37°57' W 122°31'0 0.0
2017-Nov-08 20:00N 37°57' W 122°31'0 0.0
2017-Nov-08 19:30N 37°57' W 122°31'1019.8
2017-Nov-08 19:01N 37°49' W 122°23'3 6.3
2017-Nov-08 18:31N 37°52' W 122°25'712.4
2017-Nov-08 17:58N 37°57' W 122°30'2 4.9
2017-Nov-08 17:30N 37°56' W 122°28'917.3
2017-Nov-08 17:00N 37°48' W 122°24'816.2
2017-Nov-08 16:30N 37°55' W 122°28'1 2.9
2017-Nov-08 16:01N 37°56' W 122°29'918.7
2017-Nov-08 15:31N 37°48' W 122°24'1020.7
2017-Nov-08 15:00N 37°57' W 122°30'713.8
2017-Nov-08 14:30N 37°52' W 122°25'3 5.4
2017-Nov-08 14:01N 37°54' W 122°27'4 8.3
2017-Nov-08 13:30N 37°57' W 122°30'0 0.0
2017-Nov-08 03:49N 37°57' W 122°30'  
Track history (hours):
 
Tides and Currents Weather Stations Pressure Air Temp Water Temp Dewpoint Dewpoint Depression Visibility Wind Speed Wind Dir Waves Ship Positions

Napa

Owner: Golden Gate Bridge Hwy. and Transportation District, San Francisco, CA. More information available from US FCC via Universal Licensing System and Coast Guard Vessel Documentation Center.

Last reported at 2017-Nov-18 03:47 UTC. Time now 2017-Nov-18 06:19 UTC.
Position N 37°57' W 122°30'.

Length 38 m; draft 0.15 m.

Type: Passenger vessel. MMSI: 36677150.

Date/timePositionNaut miles runAvg speedWind from/ knotsBaromVisibWave heightAir tempDewpointWater temp
2017-Nov-18 03:47N 37°57' W 122°30'726.0
2017-Nov-18 03:31N 37°51' W 122°24'1 2.1
2017-Nov-18 03:00N 37°52' W 122°25'612.5
2017-Nov-18 02:30N 37°57' W 122°30'1021.0
2017-Nov-18 02:00N 37°48' W 122°24'510.4
2017-Nov-18 01:31N 37°53' W 122°26'611.0
2017-Nov-18 01:00N 37°57' W 122°30'1020.9
2017-Nov-18 00:31N 37°48' W 122°24'4 8.6
2017-Nov-18 00:01N 37°52' W 122°25'612.8
2017-Nov-17 23:30N 37°57' W 122°30'1021.0
2017-Nov-17 23:00N 37°48' W 122°24'714.9
2017-Nov-17 22:30N 37°55' W 122°27'3 6.7
2017-Nov-17 22:00N 37°57' W 122°31'0 0.0
2017-Nov-17 21:30N 37°57' W 122°31'0 0.0
2017-Nov-17 21:00N 37°57' W 122°31'0 0.0
2017-Nov-17 20:30N 37°57' W 122°31'0 0.0
2017-Nov-17 20:00N 37°57' W 122°31'0 0.0
2017-Nov-17 19:30N 37°57' W 122°31'1020.7
2017-Nov-17 19:01N 37°48' W 122°23'4 7.1
2017-Nov-17 18:31N 37°51' W 122°25'713.3
2017-Nov-17 17:59N 37°57' W 122°30'2 4.7
2017-Nov-17 17:31N 37°56' W 122°28'917.2
2017-Nov-17 17:01N 37°48' W 122°24'918.0
2017-Nov-17 16:31N 37°56' W 122°29'1 1.9
2017-Nov-17 16:00N 37°56' W 122°30'1019.2
2017-Nov-17 15:30N 37°48' W 122°24'1021.1
2017-Nov-17 15:00N 37°57' W 122°30'714.6
2017-Nov-17 14:31N 37°51' W 122°24'3 6.8
2017-Nov-17 14:00N 37°54' W 122°27'4 7.7
2017-Nov-17 13:30N 37°57' W 122°30'0 0.0
2017-Nov-17 03:50N 37°57' W 122°30'823.3
2017-Nov-17 03:31N 37°51' W 122°24'2 3.3
2017-Nov-17 03:01N 37°52' W 122°25'612.0
2017-Nov-17 02:30N 37°57' W 122°30'1021.3
2017-Nov-17 02:01N 37°48' W 122°24'611.3
2017-Nov-17 01:30N 37°53' W 122°26'5 9.8
2017-Nov-17 01:00N 37°57' W 122°30'1021.5
2017-Nov-17 00:30N 37°48' W 122°24'4 7.8
2017-Nov-17 00:01N 37°52' W 122°25'713.3
2017-Nov-16 23:30N 37°57' W 122°30'1021.4
2017-Nov-16 23:00N 37°48' W 122°24'713.6
2017-Nov-16 22:31N 37°54' W 122°27'4 7.7
2017-Nov-16 22:00N 37°57' W 122°31'0 0.0
2017-Nov-16 21:30N 37°57' W 122°31'0 0.0
2017-Nov-16 21:00N 37°57' W 122°31'0 0.0
2017-Nov-16 20:30N 37°57' W 122°31'0 0.0
2017-Nov-16 20:00N 37°57' W 122°31'0 0.0
2017-Nov-16 19:31N 37°57' W 122°31'1019.5
2017-Nov-16 19:01N 37°49' W 122°23'3 6.0
2017-Nov-16 18:31N 37°52' W 122°25'713.1
2017-Nov-16 17:59N 37°57' W 122°30'3 6.0
2017-Nov-16 17:30N 37°55' W 122°27'816.3
2017-Nov-16 17:00N 37°48' W 122°24'1019.1
2017-Nov-16 16:30N 37°56' W 122°29'1 1.3
2017-Nov-16 16:01N 37°56' W 122°29'918.1
2017-Nov-16 15:31N 37°48' W 122°24'1020.6
2017-Nov-16 15:00N 37°57' W 122°30'714.3
2017-Nov-16 14:31N 37°52' W 122°24'2 4.9
2017-Nov-16 14:01N 37°53' W 122°26'5 8.8
2017-Nov-16 13:29N 37°57' W 122°30'0 0.0
2017-Nov-16 03:47N 37°57' W 122°30'727.2
2017-Nov-16 03:31N 37°51' W 122°24'1 2.5
2017-Nov-16 03:01N 37°52' W 122°25'612.1
2017-Nov-16 02:29N 37°57' W 122°30'1022.0
2017-Nov-16 02:00N 37°48' W 122°24'5 9.5
2017-Nov-16 01:30N 37°52' W 122°25'612.0
2017-Nov-16 01:00N 37°57' W 122°30'1020.9
2017-Nov-16 00:31N 37°48' W 122°24'4 7.9
2017-Nov-16 00:00N 37°52' W 122°25'713.2
2017-Nov-15 23:30N 37°57' W 122°30'1021.5
2017-Nov-15 23:00N 37°48' W 122°24'918.3
2017-Nov-15 22:31N 37°56' W 122°29'2 3.3
2017-Nov-15 22:01N 37°57' W 122°31'0 0.0
2017-Nov-15 21:31N 37°57' W 122°31'0 0.0
2017-Nov-15 21:00N 37°57' W 122°31'0 0.0
2017-Nov-15 20:30N 37°57' W 122°31'0 0.0
2017-Nov-15 20:00N 37°57' W 122°31'0 0.0
2017-Nov-15 19:30N 37°57' W 122°31'919.1
2017-Nov-15 19:01N 37°49' W 122°24'2 4.1
2017-Nov-15 18:31N 37°51' W 122°25'714.7
2017-Nov-15 18:00N 37°57' W 122°30'4 7.6
2017-Nov-15 17:31N 37°54' W 122°27'714.1
2017-Nov-15 17:00N 37°48' W 122°24'919.0
2017-Nov-15 16:30N 37°56' W 122°29'0 0.2
2017-Nov-15 16:01N 37°56' W 122°29'918.8
2017-Nov-15 15:31N 37°48' W 122°23'1018.6
2017-Nov-15 14:57N 37°57' W 122°30'817.3
2017-Nov-15 14:31N 37°51' W 122°24'3 5.5
2017-Nov-15 14:00N 37°53' W 122°26'5 0.5
2017-Nov-15 03:48N 37°57' W 122°30'724.9
2017-Nov-15 03:30N 37°51' W 122°24'1 2.2
2017-Nov-15 03:00N 37°52' W 122°25'612.1
2017-Nov-15 02:30N 37°57' W 122°30'1020.9
2017-Nov-15 02:01N 37°48' W 122°24'5 9.4
2017-Nov-15 01:31N 37°52' W 122°25'611.6
2017-Nov-15 01:00N 37°57' W 122°30'1021.1
2017-Nov-15 00:30N 37°48' W 122°24'2 3.9
2017-Nov-15 00:00N 37°50' W 122°24'917.3
2017-Nov-14 23:30N 37°57' W 122°30'1020.9
2017-Nov-14 23:00N 37°48' W 122°24'816.5
2017-Nov-14 22:30N 37°55' W 122°28'3 5.1
2017-Nov-14 22:00N 37°57' W 122°31'0 0.0
2017-Nov-14 21:30N 37°57' W 122°31'0 0.0
2017-Nov-14 21:00N 37°57' W 122°31'0 0.0
2017-Nov-14 20:30N 37°57' W 122°31'0 0.0
2017-Nov-14 20:00N 37°57' W 122°31'0 0.0
2017-Nov-14 19:30N 37°57' W 122°31'1020.9
2017-Nov-14 19:01N 37°48' W 122°23'4 8.3
2017-Nov-14 18:30N 37°52' W 122°25'6 9.5
2017-Nov-14 17:50N 37°57' W 122°30'3 8.5
2017-Nov-14 17:30N 37°55' W 122°27'816.6
2017-Nov-14 17:01N 37°48' W 122°24'1019.0
2017-Nov-14 16:30N 37°56' W 122°29'1 1.3
2017-Nov-14 16:00N 37°56' W 122°29'918.0
2017-Nov-14 15:30N 37°48' W 122°24'1020.6
2017-Nov-14 15:00N 37°57' W 122°30'816.1
2017-Nov-14 14:31N 37°51' W 122°24'4 8.0
2017-Nov-14 14:00N 37°54' W 122°27'4 0.4
2017-Nov-14 03:46N 37°57' W 122°30'727.7
2017-Nov-14 03:31N 37°52' W 122°24'1 2.2
2017-Nov-14 03:01N 37°52' W 122°25'611.4
2017-Nov-14 02:29N 37°57' W 122°30'1021.6
2017-Nov-14 02:00N 37°48' W 122°24'611.3
2017-Nov-14 01:30N 37°53' W 122°26'510.2
2017-Nov-14 01:00N 37°57' W 122°30'1020.9
2017-Nov-14 00:30N 37°48' W 122°24'5 9.7
2017-Nov-14 00:00N 37°52' W 122°25'610.5
2017-Nov-13 23:28N 37°57' W 122°30'1022.8
2017-Nov-13 23:01N 37°48' W 122°24'713.9
2017-Nov-13 22:30N 37°54' W 122°27'4 5.1
2017-Nov-13 21:47N 37°57' W 122°30'0 0.0
2017-Nov-12 04:08N 37°57' W 122°31'0 3.7
2017-Nov-12 04:00N 37°56' W 122°30'1020.3
2017-Nov-12 03:31N 37°48' W 122°24'1 1.8
2017-Nov-12 03:01N 37°49' W 122°24'5 9.6
2017-Nov-12 02:30N 37°51' W 122°29'510.8
2017-Nov-12 02:00N 37°48' W 122°24'0 0.0
2017-Nov-12 01:31N 37°48' W 122°24'1020.2
2017-Nov-12 01:00N 37°57' W 122°30'0 0.0
2017-Nov-11 06:02N 37°57' W 122°31'0 1.4
2017-Nov-11 06:00N 37°57' W 122°30'1021.3
2017-Nov-11 05:31N 37°48' W 122°24'917.9
2017-Nov-11 05:00N 37°56' W 122°29'1 2.2
2017-Nov-11 04:30N 37°56' W 122°30'1020.0
2017-Nov-11 04:01N 37°48' W 122°24'1020.4
2017-Nov-11 03:30N 37°57' W 122°30'0 0.4
2017-Nov-11 02:58N 37°57' W 122°30'1023.0
2017-Nov-11 02:31N 37°48' W 122°24'2 5.0
2017-Nov-11 02:01N 37°50' W 122°24'813.0
2017-Nov-11 01:25N 37°56' W 122°30'1025.1
2017-Nov-11 01:01N 37°48' W 122°24'3 5.1
2017-Nov-11 00:30N 37°50' W 122°24'812.8
2017-Nov-10 23:55N 37°56' W 122°30'1024.6
2017-Nov-10 23:30N 37°48' W 122°24'917.9
2017-Nov-10 23:00N 37°56' W 122°29'1 3.0
2017-Nov-10 22:30N 37°57' W 122°30'0 0.0
2017-Nov-10 22:00N 37°57' W 122°30'1020.4
2017-Nov-10 21:31N 37°48' W 122°23'5 9.1
2017-Nov-10 21:00N 37°53' W 122°25'611.3
2017-Nov-10 20:30N 37°57' W 122°30'1020.8
2017-Nov-10 20:01N 37°48' W 122°23'510.9
2017-Nov-10 19:30N 37°53' W 122°26'5 9.4
2017-Nov-10 18:59N 37°57' W 122°30'3 6.5
2017-Nov-10 18:30N 37°55' W 122°27'815.7
2017-Nov-10 18:01N 37°48' W 122°24'713.1
2017-Nov-10 17:30N 37°54' W 122°27'4 7.7
2017-Nov-10 16:59N 37°57' W 122°30'1022.2
2017-Nov-10 16:30N 37°48' W 122°24'1018.8
2017-Nov-10 16:00N 37°56' W 122°29'0 0.4
2017-Nov-10 15:30N 37°56' W 122°29'918.1
2017-Nov-10 15:01N 37°48' W 122°23'1019.9
2017-Nov-10 14:30N 37°57' W 122°30'0 0.0
2017-Nov-10 04:12N 37°57' W 122°30'0 0.0
2017-Nov-10 03:58N 37°57' W 122°30'816.5
2017-Nov-10 03:31N 37°51' W 122°24'0 1.0
2017-Nov-10 03:01N 37°51' W 122°25'713.3
2017-Nov-10 02:28N 37°57' W 122°30'1022.3
2017-Nov-10 02:00N 37°48' W 122°24'5 9.3
2017-Nov-10 01:31N 37°52' W 122°25'612.1
2017-Nov-10 01:00N 37°57' W 122°30'1021.0
2017-Nov-10 00:30N 37°48' W 122°24'5 9.2
2017-Nov-10 00:01N 37°52' W 122°25'611.5
2017-Nov-09 23:28N 37°57' W 122°30'1022.4
2017-Nov-09 23:00N 37°48' W 122°24'714.6
2017-Nov-09 22:30N 37°55' W 122°27'3 6.9
2017-Nov-09 22:00N 37°57' W 122°30'0 0.0
2017-Nov-09 21:30N 37°57' W 122°30'0 0.0
2017-Nov-09 20:59N 37°57' W 122°30'0 0.0
2017-Nov-09 20:30N 37°57' W 122°30'0 0.0
2017-Nov-09 20:00N 37°57' W 122°30'0 0.0
2017-Nov-09 19:30N 37°57' W 122°30'1019.7
2017-Nov-09 19:00N 37°49' W 122°23'3 6.1
2017-Nov-09 18:31N 37°52' W 122°25'713.6
2017-Nov-09 18:00N 37°57' W 122°30'2 5.0
2017-Nov-09 17:30N 37°55' W 122°28'816.8
2017-Nov-09 17:00N 37°48' W 122°24'1018.0
2017-Nov-09 16:26N 37°57' W 122°30'1 1.8
2017-Nov-09 16:00N 37°56' W 122°29'1019.4
2017-Nov-09 15:30N 37°48' W 122°24'1020.9
2017-Nov-09 15:00N 37°57' W 122°30'815.9
2017-Nov-09 14:31N 37°51' W 122°24'4 8.3
2017-Nov-09 14:01N 37°54' W 122°27'4 7.7
2017-Nov-09 13:30N 37°57' W 122°30'0 0.0
2017-Nov-09 03:51N 37°57' W 122°30'721.6
2017-Nov-09 03:30N 37°51' W 122°24'2 4.9
2017-Nov-09 03:01N 37°49' W 122°24'918.5
2017-Nov-09 02:30N 37°57' W 122°30'1021.0
2017-Nov-09 02:01N 37°48' W 122°24'4 8.9
2017-Nov-09 01:30N 37°52' W 122°25'612.0
2017-Nov-09 00:59N 37°57' W 122°30'1021.9
2017-Nov-09 00:30N 37°48' W 122°24'510.3
2017-Nov-09 00:01N 37°53' W 122°25'611.0
2017-Nov-08 23:29N 37°57' W 122°30'1021.7
2017-Nov-08 23:00N 37°48' W 122°24'612.9
2017-Nov-08 22:31N 37°54' W 122°27'4 8.6
2017-Nov-08 22:00N 37°57' W 122°31'0 0.0
2017-Nov-08 21:30N 37°57' W 122°31'0 0.0
2017-Nov-08 21:00N 37°57' W 122°31'0 0.0
2017-Nov-08 20:30N 37°57' W 122°31'0 0.0
2017-Nov-08 20:00N 37°57' W 122°31'0 0.0
2017-Nov-08 19:30N 37°57' W 122°31'1019.8
2017-Nov-08 19:01N 37°49' W 122°23'3 6.3
2017-Nov-08 18:31N 37°52' W 122°25'712.4
2017-Nov-08 17:58N 37°57' W 122°30'2 4.9
2017-Nov-08 17:30N 37°56' W 122°28'917.3
2017-Nov-08 17:00N 37°48' W 122°24'816.2
2017-Nov-08 16:30N 37°55' W 122°28'1 2.9
2017-Nov-08 16:01N 37°56' W 122°29'918.7
2017-Nov-08 15:31N 37°48' W 122°24'1020.7
2017-Nov-08 15:00N 37°57' W 122°30'713.8
2017-Nov-08 14:30N 37°52' W 122°25'3 5.4
2017-Nov-08 14:01N 37°54' W 122°27'4 8.3
2017-Nov-08 13:30N 37°57' W 122°30'0 0.0
2017-Nov-08 03:49N 37°57' W 122°30'  

Dump ship's entire track history